Latest Weather Observations for Amberley

IDQ60801

Issued at 11:04 am EST Wednesday 28 January 2015 (issued every 30 minutes, with the page automatically refreshed every 10 minutes)

About weather observations | Map of weather stations | Latest weather observations for QLD | Other Formats
Station Details ID: 040004 Name: AMBERLEY AMO Lat: -27.63 Lon: 152.71 Height: 24.2 m
Data from the previous 72 hours. | See also: Recent months at Amberley
Date/Time
EST
Temp
°C
App
Temp
°C
Dew
Point
Rel
Hum
%
Delta-T
°C
Wind Press
QNH
hPa
Press
MSL
hPa
Rain
since 9 am
mm
Dir
 
Spd
km/h
Gust
km/h
Spd
kts
Gust
kts
28/10:30am 22.9 22.2 18.3 75 2.9 S 19 24 10 13 1007.1 - 0.0
28/10:00am 22.4 23.6 19.1 81 2.1 SSW 11 19 6 10 1007.3 - 0.0
28/09:30am 21.0 21.4 18.9 88 1.3 SSE 15 22 8 12 1006.9 - 0.0
28/09:00am 20.7 22.1 19.6 93 0.7 S 11 19 6 10 1006.9 1006.7 5.6
28/07:30am 19.1 19.4 17.8 92 0.8 SSW 13 15 7 8 1006.7 - 5.4
28/07:00am 19.1 20.0 17.6 91 0.9 SSW 9 11 5 6 1006.2 - 5.2
28/06:30am 19.1 20.4 17.6 91 0.9 SSW 7 9 4 5 1006.2 - 4.8
28/05:30am 19.0 20.2 17.4 90 1.0 SSW 7 11 4 6 1006.0 - 4.2
28/05:00am 19.1 19.1 17.3 89 1.1 SSW 13 15 7 8 1005.7 - 4.0
28/04:30am 19.3 19.2 17.0 86 1.4 S 13 19 7 10 1005.8 - 3.8
28/04:00am 19.4 19.4 17.1 86 1.4 S 13 17 7 9 1005.5 - 3.4
28/03:30am 19.7 19.1 16.7 83 1.8 S 15 19 8 10 1005.6 - 3.2
28/02:30am 20.1 20.5 17.3 84 1.7 SSW 11 15 6 8 1005.9 - 3.2
28/02:00am 20.2 20.5 17.9 87 1.4 SSW 13 15 7 8 1006.2 - 3.2
28/01:30am 20.1 20.6 18.3 89 1.1 S 13 15 7 8 1006.4 - 3.2
28/01:00am 20.1 20.4 18.7 92 0.9 SSE 15 19 8 10 1006.8 - 3.2
28/12:30am 20.2 20.0 18.6 90 1.0 S 17 20 9 11 1007.5 - 3.0
28/12:24am 20.2 20.1 18.8 92 0.9 S 17 24 9 13 1007.6 - 3.0
28/12:04am 20.6 20.4 19.3 92 0.8 S 19 24 10 13 1007.7 - 2.6
28/12:00am 20.8 20.9 19.2 90 1.0 S 17 24 9 13 1007.7 1007.5 2.6
 
Date/Time
EST
Temp
°C
App
Temp
°C
Dew
Point
Rel
Hum
%
Delta-T
°C
Wind Press
QNH
hPa
Press
MSL
hPa
Rain
since 9 am
mm
Dir
 
Spd
km/h
Gust
km/h
Spd
kts
Gust
kts
27/11:30pm 22.1 23.8 20.9 93 0.8 S 13 17 7 9 1007.8 - 1.8
27/11:00pm 22.5 24.8 21.3 93 0.8 SSE 11 13 6 7 1007.4 - 1.4
27/10:30pm 22.9 25.3 20.9 88 1.3 ESE 9 11 5 6 1007.2 - 1.0
27/10:00pm 22.9 25.2 20.6 87 1.5 E 9 13 5 7 1007.0 - 1.0
27/09:30pm 23.4 25.2 20.3 83 2.0 ENE 11 15 6 8 1007.4 - 0.6
27/08:30pm 24.7 24.4 19.1 71 3.6 ENE 19 28 10 15 1006.8 - 0.0
27/08:00pm 24.9 24.7 19.3 71 3.6 E 19 32 10 17 1006.5 - 0.0
27/07:30pm 25.1 24.6 19.0 69 3.9 E 20 30 11 16 1006.1 - 0.0
27/07:00pm 25.3 23.7 19.2 69 3.9 E 26 39 14 21 1005.8 - 0.0
27/06:30pm 25.8 24.9 18.2 63 4.8 ENE 20 32 11 17 1005.7 - 0.0
27/05:30pm 26.5 24.3 17.8 58 5.5 E 26 39 14 21 1004.6 - 0.0
27/05:00pm 27.0 24.7 17.7 56 5.9 E 26 39 14 21 1004.3 - 0.0
27/04:30pm 27.7 25.0 18.5 57 5.9 E 30 39 16 21 1004.0 - 0.0
27/04:00pm 28.5 27.3 20.1 60 5.5 NE 26 39 14 21 1003.9 - 0.0
27/03:30pm 28.6 27.3 19.9 59 5.7 ENE 26 35 14 19 1004.2 - 0.0
27/03:00pm 29.2 28.1 20.3 58 5.9 ENE 26 33 14 18 1004.4 1004.2 0.0
27/02:30pm 29.5 27.9 19.2 54 6.7 ENE 26 35 14 19 1004.9 - 0.0
27/02:00pm 29.5 28.1 18.9 53 6.9 ENE 24 32 13 17 1005.1 - 0.0
27/01:30pm 29.4 29.4 18.9 53 6.8 E 17 28 9 15 1005.5 - 0.0
27/01:00pm 29.2 29.1 18.7 53 6.8 E 17 24 9 13 1006.0 - 0.0
27/12:30pm 29.4 28.2 19.3 54 6.6 E 24 32 13 17 1006.3 - 0.0
27/12:00pm 29.6 28.8 20.9 59 5.8 E 26 37 14 20 1006.6 1006.4 0.0
27/11:30am 28.8 28.5 19.1 55 6.3 ENE 19 26 10 14 1007.1 - 0.0
27/11:00am 29.0 29.4 19.0 54 6.5 E 15 22 8 12 1007.5 - 0.0
27/10:30am 29.0 29.6 18.6 53 6.7 E 13 28 7 15 1007.7 - 0.0
27/10:00am 29.2 30.1 20.1 58 6.0 E 15 20 8 11 1008.0 - 0.0
27/09:30am 28.8 29.4 20.3 60 5.6 ESE 17 24 9 13 1008.0 - 0.0
27/09:00am 28.4 29.2 20.7 63 5.1 E 17 24 9 13 1008.1 1007.9 0.2
27/08:30am 27.8 29.0 21.4 68 4.3 E 17 26 9 14 1007.9 - 0.2
27/08:00am 27.1 27.9 21.4 71 3.8 E 19 28 10 15 1008.1 - 0.2
27/07:30am 26.0 28.2 21.8 77 2.8 ESE 13 19 7 10 1007.8 - 0.2
27/07:00am 25.5 28.6 22.1 81 2.3 S 9 9 5 5 1007.7 - 0.2
27/06:30am 24.0 28.5 21.6 86 1.6 CALM 0 0 0 0 1007.8 - 0.2
27/06:00am 22.7 26.9 21.8 95 0.6 SSW 2 7 1 4 1007.9 1007.7 0.2
27/05:30am 22.2 26.6 21.4 95 0.5 CALM 0 0 0 0 1007.6 - 0.2
27/05:00am 22.5 26.9 21.4 93 0.7 CALM 0 0 0 0 1007.2 - 0.2
27/04:30am 22.4 26.9 21.5 95 0.6 CALM 0 0 0 0 1006.7 - 0.2
27/04:00am 22.6 26.0 21.7 95 0.6 S 6 7 3 4 1006.5 - 0.2
27/03:30am 22.8 26.0 21.7 93 0.7 S 7 9 4 5 1006.5 - 0.2
27/03:00am 22.8 25.6 21.6 93 0.8 SSW 9 11 5 6 1006.5 1006.3 0.2
27/02:30am 22.9 25.4 21.7 93 0.8 S 11 13 6 7 1006.1 - 0.2
27/02:20am 22.9 25.7 21.5 92 0.9 S 9 9 5 5 1006.2 - 0.2
27/02:07am 23.2 26.7 21.8 92 0.9 SSW 6 7 3 4 1006.4 - 0.2
27/02:00am 23.3 26.6 21.8 91 1.0 SSW 7 9 4 5 1006.5 - 0.2
27/01:30am 23.3 26.1 21.6 90 1.1 SSW 9 11 5 6 1006.8 - 0.2
27/01:00am 23.2 26.3 21.5 90 1.1 SSW 7 9 4 5 1007.1 - 0.2
27/12:30am 23.7 26.6 21.7 88 1.3 SSW 9 11 5 6 1007.5 - 0.2
27/12:00am 23.9 27.4 22.1 90 1.2 SSW 7 9 4 5 1007.8 1007.6 0.2
 
Date/Time
EST
Temp
°C
App
Temp
°C
Dew
Point
Rel
Hum
%
Delta-T
°C
Wind Press
QNH
hPa
Press
MSL
hPa
Rain
since 9 am
mm
Dir
 
Spd
km/h
Gust
km/h
Spd
kts
Gust
kts
26/11:30pm 24.3 27.5 21.7 85 1.7 SSW 7 9 4 5 1008.2 - 0.2
26/11:23pm 24.5 27.3 21.6 84 1.9 SSW 9 11 5 6 1008.4 - 0.2
26/11:00pm 24.8 27.9 22.1 85 1.8 SSW 9 11 5 6 1008.6 - 0.2
26/10:38pm 24.9 28.5 22.4 86 1.7 S 7 9 4 5 1008.7 - 0.2
26/10:30pm 24.8 28.3 22.1 85 1.8 S 7 7 4 4 1008.6 - 0.2
26/10:00pm 25.0 27.6 21.9 83 2.1 E 11 15 6 8 1008.4 - 0.2
26/09:30pm 25.2 27.2 21.6 80 2.4 E 13 20 7 11 1008.3 - 0.2
26/09:00pm 23.6 26.8 21.6 88 1.3 SSW 7 9 4 5 1008.5 1008.3 0.2
26/08:30pm 23.6 28.1 21.5 88 1.4 CALM 0 9 0 5 1008.6 - 0.2
26/08:00pm 23.8 28.2 21.4 86 1.6 CALM 0 0 0 0 1008.6 - 0.2
26/07:30pm 23.4 25.3 21.3 88 1.4 S 13 17 7 9 1008.5 - 0.2
26/07:00pm 23.7 25.9 21.1 85 1.7 SSW 11 15 6 8 1008.1 - 0.2
26/06:30pm 25.0 27.3 22.0 83 2.0 S 13 17 7 9 1007.6 - 0.2
26/06:00pm 27.7 29.7 23.0 75 3.2 ESE 17 26 9 14 1007.1 1006.9 0.0
26/05:30pm 28.0 29.4 22.6 72 3.7 E 19 28 10 15 1006.2 - 0.0
26/05:00pm 28.4 29.2 22.4 70 4.1 E 22 30 12 16 1005.9 - 0.0
26/04:30pm 29.0 29.6 22.1 66 4.7 E 22 33 12 18 1005.1 - 0.0
26/04:00pm 30.0 28.6 20.5 56 6.3 E 28 39 15 21 1005.1 - 0.0
26/03:30pm 31.1 30.0 19.5 50 7.6 E 24 33 13 18 1004.8 - 0.0
26/03:00pm 32.0 30.5 19.4 47 8.3 E 26 30 14 16 1004.2 1004.0 0.0
26/02:30pm 33.1 31.4 20.6 47 8.4 E 30 37 16 20 1004.3 - 0.0
26/02:00pm 33.3 33.2 21.5 50 8.0 E 24 33 13 18 1004.2 - 0.0
26/01:30pm 32.0 32.0 21.0 52 7.4 ENE 22 33 12 18 1004.6 - 0.0
26/01:00pm 32.4 32.3 21.5 52 7.4 ENE 24 33 13 18 1004.5 - 0.0
26/12:30pm 34.0 34.3 21.5 48 8.5 ENE 22 30 12 16 1004.8 - 0.0
26/12:00pm 33.6 35.4 21.2 48 8.4 ENE 13 19 7 10 1005.3 1005.1 0.0
26/11:30am 34.0 35.1 21.3 47 8.6 E 17 24 9 13 1005.7 - 0.0
26/11:00am 33.3 36.4 22.9 54 7.2 ENE 11 15 6 8 1006.1 - 0.0
26/10:30am 32.2 35.1 23.1 58 6.3 E 13 19 7 10 1006.3 - 0.0
26/10:00am 31.4 35.9 23.9 64 5.2 E 7 11 4 6 1006.4 - 0.0
26/09:30am 30.9 35.6 24.3 68 4.6 ENE 7 15 4 8 1006.7 - 0.0
26/09:00am 30.0 35.5 24.1 70 4.1 SW 2 7 1 4 1006.9 1006.7 0.0
26/08:30am 29.3 35.4 24.4 75 3.4 CALM 0 9 0 5 1006.8 - 0.0
26/08:00am 28.3 33.3 23.2 74 3.5 SSW 2 7 1 4 1006.9 - 0.0
26/07:30am 27.1 31.8 22.7 77 3.0 SSW 2 7 1 4 1006.8 - 0.0
26/07:18am 26.8 31.4 22.5 77 2.9 SSW 2 7 1 4 1006.9 - 0.0
26/07:00am 26.3 31.2 22.4 79 2.6 CALM 0 0 0 0 1006.9 - 0.0
26/06:30am 25.2 29.7 22.2 83 2.0 SSW 2 7 1 4 1006.8 - 0.0
26/06:00am 24.4 28.7 22.0 86 1.6 SSW 2 7 1 4 1006.4 1006.2 0.0
26/05:30am 23.8 27.1 21.5 87 1.5 SSW 6 7 3 4 1006.0 - 0.0
26/05:00am 24.0 27.0 21.3 85 1.8 SSW 7 9 4 5 1005.7 - 0.0
26/04:30am 23.8 27.3 21.1 85 1.8 SSW 4 11 2 6 1005.5 - 0.0
26/04:00am 23.9 27.5 21.3 85 1.7 SSW 4 7 2 4 1005.4 - 0.0
26/03:30am 23.8 26.7 21.8 88 1.3 SSW 9 11 5 6 1005.4 - 0.0
26/03:15am 23.6 26.5 21.8 90 1.2 SSW 9 11 5 6 1005.4 - 0.0
26/03:00am 23.5 26.0 21.8 90 1.1 SSW 11 13 6 7 1005.4 1005.2 0.0
26/02:30am 23.3 26.5 21.6 90 1.1 SSW 7 9 4 5 1005.3 - 0.0
26/02:00am 25.3 29.3 23.7 91 1.1 SSW 9 11 5 6 1005.2 - 0.0
26/01:30am 25.9 31.6 23.7 88 1.5 CALM 0 6 0 3 1005.2 - 0.0
26/01:00am 25.9 31.7 24.0 89 1.3 CALM 0 0 0 0 1005.5 - 0.0
26/12:30am 25.9 31.7 24.0 89 1.3 CALM 0 0 0 0 1005.9 - 0.0
26/12:00am 26.5 32.1 24.2 87 1.6 E 2 7 1 4 1006.3 1006.1 0.0
 
Date/Time
EST
Temp
°C
App
Temp
°C
Dew
Point
Rel
Hum
%
Delta-T
°C
Wind Press
QNH
hPa
Press
MSL
hPa
Rain
since 9 am
mm
Dir
 
Spd
km/h
Gust
km/h
Spd
kts
Gust
kts
25/11:30pm 27.0 31.3 24.3 85 1.9 S 9 11 5 6 1006.5 - 0.0
25/11:29pm 26.9 31.2 24.3 86 1.8 S 9 11 5 6 1006.6 - 0.0
25/11:00pm 27.1 31.4 24.2 84 2.0 SSW 9 15 5 8 1006.2 - 0.0
25/10:30pm 27.1 31.5 24.4 85 1.9 S 9 13 5 7 1006.5 - 0.0
25/10:00pm 27.5 30.4 24.5 84 2.1 E 17 22 9 12 1005.7 - 0.0
25/09:30pm 27.8 29.4 24.5 82 2.3 E 24 33 13 18 1005.4 - 0.0
25/09:00pm 28.3 30.6 24.1 78 2.9 ENE 19 26 10 14 1005.1 1004.9 0.0
25/08:30pm 28.5 29.8 24.0 76 3.1 E 24 33 13 18 1004.9 - 0.0
25/08:00pm 28.7 29.6 23.9 75 3.3 E 26 33 14 18 1004.5 - 0.0
25/07:30pm 29.3 29.9 23.5 71 4.0 E 26 32 14 17 1004.2 - 0.0
25/07:00pm 30.4 31.5 23.0 64 5.1 ENE 22 30 12 16 1003.4 - 0.0
25/06:30pm 31.7 32.9 23.2 60 5.9 ENE 22 32 12 17 1002.5 - 0.0
25/06:00pm 34.4 37.5 21.0 45 9.1 SSW 6 7 3 4 1002.1 1001.9 0.0
25/05:30pm 35.4 36.9 17.7 35 11.5 S 6 9 3 5 1001.8 - 0.0
25/05:00pm 36.1 37.1 16.8 32 12.4 SSW 7 15 4 8 1001.6 - 0.0
25/04:30pm 36.0 37.8 18.7 36 11.4 SSW 7 17 4 9 1001.8 - 0.0
25/04:00pm 36.5 36.9 18.2 34 12.0 SW 13 19 7 10 1002.0 - 0.0
25/03:30pm 36.4 37.1 18.9 35 11.6 SSW 13 20 7 11 1002.2 - 0.0
25/03:00pm 36.3 37.0 18.9 36 11.5 SW 13 19 7 10 1002.3 1002.1 0.0
25/02:30pm 36.0 36.2 20.1 39 10.7 W 19 26 10 14 1002.7 - 0.0
25/02:00pm 35.0 35.7 19.7 40 10.2 SW 15 26 8 14 1002.8 - 0.0
25/01:30pm 35.3 35.8 20.8 42 9.8 WSW 19 28 10 15 1002.9 - 0.0
25/01:00pm 34.7 35.8 20.4 43 9.6 W 15 22 8 12 1003.2 - 0.0
25/12:30pm 34.1 35.7 21.5 47 8.6 W 15 22 8 12 1003.8 - 0.0
25/12:00pm 33.3 35.1 21.9 51 7.8 WNW 15 24 8 13 1004.2 1004.0 0.0
25/11:30am 32.7 36.0 22.5 55 7.0 W 9 19 5 10 1004.5 - 0.0

Other Formats:

Comma delimited format used in spreadsheet applications
http://www.bom.gov.au/fwo/IDQ60801/IDQ60801.94568.axf

JavaScript Object Notation format (JSON) in row-major order
http://www.bom.gov.au/fwo/IDQ60801/IDQ60801.94568.json